createdAt,value
2019-03-15T00:02:13.838Z,6.46
2019-03-15T00:04:47.556Z,6.41
2019-03-15T00:07:23.154Z,6.41
2019-03-15T00:09:55.547Z,6.34
2019-03-15T00:12:28.645Z,6.30
2019-03-15T00:15:01.648Z,6.26
2019-03-15T00:17:34.829Z,6.27
2019-03-15T00:20:08.566Z,6.50
2019-03-15T00:22:41.983Z,6.41
2019-03-15T00:25:13.674Z,6.48
2019-03-15T00:27:45.665Z,6.42
2019-03-15T00:30:18.648Z,6.36
2019-03-15T00:32:49.916Z,6.43
2019-03-15T00:35:21.674Z,6.33
2019-03-15T00:37:56.583Z,6.46
2019-03-15T00:40:27.921Z,6.45
2019-03-15T00:43:01.844Z,6.51
2019-03-15T00:45:34.879Z,6.43
2019-03-15T00:48:08.734Z,6.48
2019-03-15T00:50:44.263Z,6.52
2019-03-15T00:53:15.686Z,6.42
2019-03-15T00:55:47.999Z,6.40
2019-03-15T00:58:20.968Z,6.56
2019-03-15T01:00:53.033Z,6.55
2019-03-15T01:03:28.430Z,6.57
2019-03-15T01:06:01.803Z,6.66
2019-03-15T01:08:34.009Z,6.67
2019-03-15T01:11:05.293Z,6.58
2019-03-15T01:13:37.899Z,6.51
2019-03-15T01:16:09.190Z,6.46
2019-03-15T01:18:41.927Z,6.44
2019-03-15T01:21:13.870Z,6.48
2019-03-15T01:23:46.935Z,6.61
2019-03-15T01:26:19.878Z,6.46
2019-03-15T01:28:53.109Z,6.54
2019-03-15T01:31:26.486Z,6.44
2019-03-15T01:33:58.025Z,6.52
2019-03-15T01:36:31.884Z,6.41
2019-03-15T01:39:06.548Z,6.55
2019-03-15T01:41:38.058Z,6.48
2019-03-15T01:44:11.063Z,6.43
2019-03-15T01:46:44.604Z,6.50
2019-03-15T01:49:17.119Z,6.41
2019-03-15T01:51:49.601Z,6.43
2019-03-15T01:54:23.093Z,6.44
2019-03-15T01:56:56.048Z,6.51
2019-03-15T01:59:29.202Z,6.68
2019-03-15T02:02:02.147Z,6.70
2019-03-15T02:04:33.569Z,6.66
2019-03-15T02:07:05.001Z,6.54
2019-03-15T02:09:38.056Z,6.51
2019-03-15T02:12:11.129Z,6.47
2019-03-15T02:14:44.312Z,6.57
2019-03-15T02:17:17.220Z,6.52
2019-03-15T02:19:49.448Z,6.51
2019-03-15T02:22:23.096Z,6.47
2019-03-15T02:24:56.266Z,6.46
2019-03-15T02:27:30.279Z,6.45
2019-03-15T02:30:03.343Z,6.51
2019-03-15T02:32:35.395Z,6.46
2019-03-15T02:35:09.453Z,6.48
2019-03-15T02:37:41.308Z,6.53
2019-03-15T02:40:14.344Z,6.48
2019-03-15T02:42:47.215Z,6.65
2019-03-15T02:45:20.311Z,6.56
2019-03-15T02:47:53.432Z,6.51
2019-03-15T02:50:29.389Z,6.52
2019-03-15T02:53:02.455Z,6.61
2019-03-15T02:55:34.350Z,6.54
2019-03-15T02:58:06.277Z,6.58
2019-03-15T03:00:41.006Z,6.53
2019-03-15T03:03:14.450Z,6.57
2019-03-15T03:05:49.069Z,6.51
2019-03-15T03:08:20.384Z,6.43
2019-03-15T03:10:53.414Z,6.52
2019-03-15T03:13:26.513Z,6.46
2019-03-15T03:15:59.540Z,6.46
2019-03-15T03:18:31.547Z,6.52
2019-03-15T03:21:04.420Z,6.52
2019-03-15T03:23:37.589Z,6.57
2019-03-15T03:26:13.407Z,6.55
2019-03-15T03:28:47.401Z,6.61
2019-03-15T03:31:19.551Z,6.65
2019-03-15T03:33:54.122Z,6.56
2019-03-15T03:36:25.492Z,6.65
2019-03-15T03:38:58.508Z,6.60
2019-03-15T03:41:31.516Z,6.65
2019-03-15T03:44:04.574Z,6.55
2019-03-15T03:46:37.480Z,6.70
2019-03-15T03:49:10.545Z,6.70
2019-03-15T03:51:44.529Z,6.79
2019-03-15T03:54:16.634Z,6.99
2019-03-15T03:56:49.585Z,6.87
2019-03-15T03:59:23.588Z,6.62
2019-03-15T04:01:58.283Z,6.41
2019-03-15T04:04:31.596Z,6.36
2019-03-15T04:07:03.707Z,6.29
2019-03-15T04:09:39.218Z,6.28
2019-03-15T04:12:10.604Z,6.26
2019-03-15T04:14:44.576Z,6.18
2019-03-15T04:17:18.789Z,6.08
2019-03-15T04:19:50.542Z,6.13
2019-03-15T04:22:23.158Z,6.22
2019-03-15T04:24:55.668Z,6.21
2019-03-15T04:27:28.635Z,6.33
2019-03-15T04:30:03.402Z,6.49
2019-03-15T04:32:35.645Z,6.62
2019-03-15T04:35:07.948Z,6.57
2019-03-15T04:37:41.825Z,6.49
2019-03-15T04:40:13.852Z,6.67
2019-03-15T04:42:46.791Z,6.67
2019-03-15T04:45:19.854Z,6.71
2019-03-15T04:47:52.812Z,6.65
2019-03-15T04:50:24.809Z,6.71
2019-03-15T04:52:58.754Z,6.69
2019-03-15T04:55:30.769Z,6.68
2019-03-15T04:58:04.567Z,6.53
2019-03-15T05:00:35.893Z,6.57
2019-03-15T05:03:07.949Z,6.54
2019-03-15T05:05:40.893Z,6.60
2019-03-15T05:08:12.129Z,6.55
2019-03-15T05:10:44.819Z,6.52
2019-03-15T05:13:16.979Z,6.55
2019-03-15T05:15:48.936Z,6.60
2019-03-15T05:18:22.958Z,6.69
2019-03-15T05:20:55.923Z,6.59
2019-03-15T05:23:28.941Z,6.56
2019-03-15T05:26:01.953Z,6.49
2019-03-15T05:28:34.937Z,6.47
2019-03-15T05:31:07.955Z,6.50
2019-03-15T05:33:41.120Z,6.57
2019-03-15T05:36:12.537Z,6.66
2019-03-15T05:38:44.060Z,6.68
2019-03-15T05:41:17.065Z,6.77
2019-03-15T05:43:52.937Z,6.74
2019-03-15T05:46:23.111Z,6.67
2019-03-15T05:48:56.410Z,6.70
2019-03-15T05:51:29.123Z,6.68
2019-03-15T05:54:02.018Z,6.65
2019-03-15T05:56:35.097Z,6.63
2019-03-15T05:59:09.865Z,6.62
2019-03-15T06:01:42.605Z,6.76
2019-03-15T06:04:14.071Z,6.75
2019-03-15T06:06:47.151Z,6.81
2019-03-15T06:09:20.266Z,6.84
2019-03-15T06:11:53.229Z,6.91
2019-03-15T06:14:26.220Z,6.76
2019-03-15T06:16:59.105Z,6.79
2019-03-15T06:19:32.198Z,6.75
2019-03-15T06:22:05.273Z,6.86
2019-03-15T06:24:38.270Z,6.84
2019-03-15T06:27:10.353Z,6.81
2019-03-15T06:29:41.635Z,6.79
2019-03-15T06:32:14.266Z,6.89
2019-03-15T06:34:48.492Z,6.78
2019-03-15T06:37:22.028Z,6.78
2019-03-15T06:39:53.385Z,6.87
2019-03-15T06:42:26.380Z,7.05
2019-03-15T06:44:59.289Z,7.22
2019-03-15T06:47:32.448Z,7.21
2019-03-15T06:50:06.092Z,7.15
2019-03-15T06:52:39.495Z,7.18
2019-03-15T06:55:12.815Z,7.32
2019-03-15T06:57:44.511Z,7.17
2019-03-15T07:00:17.720Z,7.44
2019-03-15T07:02:50.049Z,7.47
2019-03-15T07:05:23.375Z,7.44
2019-03-15T07:07:56.483Z,7.30
2019-03-15T07:10:28.373Z,7.34
2019-03-15T07:13:02.480Z,7.28
2019-03-15T07:15:38.082Z,7.32
2019-03-15T07:18:13.299Z,7.30
2019-03-15T07:20:46.667Z,7.19
2019-03-15T07:23:22.179Z,7.19
2019-03-15T07:25:53.563Z,7.22
2019-03-15T07:28:27.616Z,7.21
2019-03-15T07:30:59.713Z,7.33
2019-03-15T07:33:32.626Z,7.21
2019-03-15T07:36:03.896Z,7.31
2019-03-15T07:38:35.597Z,7.45
2019-03-15T07:41:08.822Z,7.38
2019-03-15T07:43:41.685Z,7.34
2019-03-15T07:46:13.646Z,7.43
2019-03-15T07:48:49.194Z,7.42
2019-03-15T07:51:21.194Z,7.52
2019-03-15T07:53:53.723Z,7.36
2019-03-15T07:56:29.251Z,7.26
2019-03-15T07:59:03.119Z,7.25
2019-03-15T08:01:36.906Z,7.23
2019-03-15T08:04:16.788Z,7.18
2019-03-15T08:06:41.778Z,7.28
2019-03-15T08:09:14.703Z,7.44
2019-03-15T08:11:47.711Z,7.51
2019-03-15T08:14:21.217Z,7.44
2019-03-15T08:16:53.780Z,7.44
2019-03-15T08:19:25.871Z,7.41
2019-03-15T08:21:57.198Z,7.39
2019-03-15T08:24:31.778Z,7.31
2019-03-15T08:27:07.472Z,7.21
2019-03-15T08:29:39.741Z,7.22
2019-03-15T08:32:11.983Z,7.19
2019-03-15T08:34:46.299Z,7.12
2019-03-15T08:37:18.983Z,7.03
2019-03-15T08:39:50.416Z,6.99
2019-03-15T08:42:23.863Z,7.08
2019-03-15T08:44:56.853Z,7.06
2019-03-15T08:47:28.911Z,7.06
2019-03-15T08:50:02.927Z,6.94
2019-03-15T08:52:37.211Z,6.91
2019-03-15T08:55:10.418Z,6.84
2019-03-15T08:57:44.185Z,6.75
2019-03-15T09:00:15.941Z,6.69
2019-03-15T09:02:48.037Z,6.73
2019-03-15T09:05:20.011Z,6.81
2019-03-15T09:07:55.554Z,6.90
2019-03-15T09:10:27.036Z,6.99
2019-03-15T09:12:59.191Z,7.11
2019-03-15T09:15:32.004Z,7.23
2019-03-15T09:18:03.359Z,7.28
2019-03-15T09:20:34.991Z,7.31
2019-03-15T09:23:08.353Z,7.37
2019-03-15T09:25:41.067Z,7.48
2019-03-15T09:28:15.104Z,7.54
2019-03-15T09:30:48.045Z,7.59
2019-03-15T09:33:19.276Z,7.68
2019-03-15T09:35:50.580Z,7.76
2019-03-15T09:38:23.127Z,7.82
2019-03-15T09:40:55.065Z,8.02
2019-03-15T09:43:29.214Z,8.06
2019-03-15T09:46:02.105Z,8.12
2019-03-15T09:48:34.349Z,8.25
2019-03-15T09:51:08.430Z,8.43
2019-03-15T09:53:41.163Z,8.60
2019-03-15T09:56:15.088Z,8.86
2019-03-15T09:58:48.629Z,8.85
2019-03-15T10:01:34.418Z,8.95
2019-03-15T10:03:53.239Z,8.93
2019-03-15T10:06:26.170Z,8.86
2019-03-15T10:08:59.565Z,8.85
2019-03-15T10:11:31.324Z,9.02
2019-03-15T10:14:06.991Z,8.99
2019-03-15T10:16:41.308Z,9.03
2019-03-15T10:19:15.342Z,9.03
2019-03-15T10:21:48.598Z,9.13
2019-03-15T10:24:21.295Z,9.11
2019-03-15T10:26:54.480Z,9.28
2019-03-15T10:29:26.634Z,9.45
2019-03-15T10:31:59.457Z,9.37
2019-03-15T10:34:35.731Z,9.36
2019-03-15T10:37:08.436Z,9.40
2019-03-15T10:39:41.385Z,9.34
2019-03-15T10:42:14.610Z,9.32
2019-03-15T10:44:46.525Z,9.33
2019-03-15T10:47:20.577Z,9.37
2019-03-15T10:49:53.534Z,9.32
2019-03-15T10:52:27.487Z,9.39
2019-03-15T10:54:59.518Z,9.39
2019-03-15T10:57:31.196Z,9.53
2019-03-15T11:00:02.665Z,9.58
2019-03-15T11:02:35.675Z,9.58
2019-03-15T11:05:09.211Z,9.76
2019-03-15T11:07:41.457Z,9.74
2019-03-15T11:10:14.905Z,9.67
2019-03-15T11:12:46.479Z,9.52
2019-03-15T11:15:18.588Z,9.40
2019-03-15T11:17:50.304Z,9.20
2019-03-15T11:20:21.710Z,9.14
2019-03-15T11:22:53.624Z,8.98
2019-03-15T11:25:24.953Z,8.65
2019-03-15T11:27:56.622Z,8.51
2019-03-15T11:30:28.565Z,8.49
2019-03-15T11:33:01.514Z,8.31
2019-03-15T11:35:33.124Z,8.31
2019-03-15T11:38:07.305Z,8.28
2019-03-15T11:40:40.724Z,8.28
2019-03-15T11:43:14.748Z,8.22
2019-03-15T11:45:47.924Z,8.23
2019-03-15T11:48:20.663Z,8.28
2019-03-15T11:50:53.612Z,8.25
2019-03-15T11:53:26.710Z,8.13
2019-03-15T11:55:59.810Z,8.15
2019-03-15T11:58:32.699Z,8.09
2019-03-15T12:01:06.765Z,8.15
2019-03-15T12:03:52.504Z,8.11
2019-03-15T12:06:16.328Z,8.15
2019-03-15T12:08:47.734Z,8.15
2019-03-15T12:11:20.910Z,8.14
2019-03-15T12:13:53.769Z,8.18
2019-03-15T12:16:27.161Z,8.20
2019-03-15T12:19:10.009Z,8.31
2019-03-15T12:22:05.395Z,8.34
2019-03-15T12:24:35.651Z,8.31
2019-03-15T12:27:17.540Z,8.38
2019-03-15T12:29:59.524Z,8.38
2019-03-15T12:32:43.210Z,8.44
2019-03-15T12:35:25.333Z,8.36
2019-03-15T12:38:06.427Z,8.46
2019-03-15T12:40:46.968Z,8.41
2019-03-15T12:43:25.582Z,8.40
2019-03-15T12:45:56.870Z,8.44
2019-03-15T12:48:29.945Z,8.41
2019-03-15T12:51:03.214Z,8.56
2019-03-15T12:53:37.987Z,8.50
2019-03-15T12:56:11.412Z,8.50
2019-03-15T12:58:43.056Z,8.43
2019-03-15T13:01:17.080Z,8.31
2019-03-15T13:03:50.537Z,8.32
2019-03-15T13:06:24.134Z,8.31
2019-03-15T13:08:57.187Z,8.40
2019-03-15T13:11:30.038Z,8.32
2019-03-15T13:14:03.265Z,8.36
2019-03-15T13:16:38.135Z,8.39
2019-03-15T13:19:13.100Z,8.32
2019-03-15T13:21:46.139Z,7.77
2019-03-15T13:24:18.121Z,8.32
2019-03-15T13:26:50.750Z,8.23
2019-03-15T13:29:24.627Z,8.30
2019-03-15T13:31:57.352Z,8.27
2019-03-15T13:34:31.299Z,8.46
2019-03-15T13:37:05.275Z,8.38
2019-03-15T13:39:39.705Z,8.44
2019-03-15T13:42:12.252Z,8.39
2019-03-15T13:44:45.413Z,8.37
2019-03-15T13:47:18.356Z,8.34
2019-03-15T13:50:10.056Z,8.39
2019-03-15T13:52:42.303Z,8.33
2019-03-15T13:55:15.604Z,8.33
2019-03-15T13:57:48.782Z,8.41
2019-03-15T14:00:21.253Z,8.41
2019-03-15T14:02:54.337Z,8.43
2019-03-15T14:05:28.389Z,8.43
2019-03-15T14:08:11.223Z,8.42
2019-03-15T14:10:48.323Z,8.38
2019-03-15T14:13:12.025Z,8.31
2019-03-15T14:15:44.384Z,8.34
2019-03-15T14:18:21.317Z,8.36
2019-03-15T14:20:51.398Z,8.33
2019-03-15T14:23:24.275Z,8.24
2019-03-15T14:25:57.366Z,8.18
2019-03-15T14:28:30.356Z,8.14
2019-03-15T14:31:03.549Z,8.08
2019-03-15T14:33:38.121Z,8.15
2019-03-15T14:36:10.206Z,8.04
2019-03-15T14:38:42.624Z,8.01
2019-03-15T14:41:14.188Z,8.02
2019-03-15T14:43:48.690Z,7.98
2019-03-15T14:46:21.574Z,7.91
2019-03-15T14:48:53.916Z,8.05
2019-03-15T14:51:25.499Z,8.04
2019-03-15T14:53:57.679Z,7.87
2019-03-15T14:56:31.580Z,7.78
2019-03-15T14:59:04.734Z,7.73
2019-03-15T15:01:37.545Z,7.68
2019-03-15T15:04:09.748Z,7.64
2019-03-15T15:06:41.079Z,7.66
2019-03-15T15:09:14.872Z,7.67
2019-03-15T15:11:49.347Z,7.62
2019-03-15T15:14:22.174Z,7.67
2019-03-15T15:16:55.623Z,7.62
2019-03-15T15:19:29.670Z,7.57
2019-03-15T15:22:02.797Z,7.52
2019-03-15T15:24:35.760Z,7.51
2019-03-15T15:27:08.885Z,7.58
2019-03-15T15:29:43.402Z,7.48
2019-03-15T15:32:17.690Z,7.45
2019-03-15T15:34:49.921Z,7.42
2019-03-15T15:37:25.142Z,7.39
2019-03-15T15:39:59.973Z,7.36
2019-03-15T15:42:30.738Z,7.34
2019-03-15T15:45:02.958Z,7.37
2019-03-15T15:47:37.830Z,7.29
2019-03-15T15:50:12.996Z,7.31
2019-03-15T15:52:46.057Z,7.25
2019-03-15T15:55:17.869Z,7.21
2019-03-15T15:57:50.912Z,7.20
2019-03-15T16:00:24.014Z,7.18
2019-03-15T16:02:55.359Z,7.17
2019-03-15T16:05:28.029Z,7.13
2019-03-15T16:07:59.895Z,7.10
2019-03-15T16:10:35.612Z,7.08
2019-03-15T16:13:17.263Z,7.10
2019-03-15T16:15:45.062Z,7.08
2019-03-15T16:18:17.567Z,7.09
2019-03-15T16:20:51.216Z,7.10
2019-03-15T16:23:25.025Z,7.08
2019-03-15T16:25:57.100Z,7.08
2019-03-15T16:28:34.569Z,7.08
2019-03-15T16:31:06.144Z,7.06
2019-03-15T16:33:37.939Z,7.05
2019-03-15T16:36:12.190Z,7.03
2019-03-15T16:38:46.229Z,7.04
2019-03-15T16:41:18.264Z,7.03
2019-03-15T16:43:51.387Z,7.02
2019-03-15T16:46:22.770Z,7.01
2019-03-15T16:48:54.140Z,7.02
2019-03-15T16:51:27.138Z,6.99
2019-03-15T16:54:01.889Z,6.99
2019-03-15T16:56:33.553Z,6.98
2019-03-15T16:59:06.320Z,6.97
2019-03-15T17:01:39.274Z,6.96
2019-03-15T17:04:12.501Z,7.00
2019-03-15T17:06:46.847Z,6.99
2019-03-15T17:09:18.273Z,6.96
2019-03-15T17:11:51.027Z,6.97
2019-03-15T17:14:26.068Z,6.96
2019-03-15T17:17:00.300Z,6.98
2019-03-15T17:19:33.200Z,7.00
2019-03-15T17:22:07.759Z,6.99
2019-03-15T17:24:41.334Z,6.98
2019-03-15T17:27:15.214Z,7.00
2019-03-15T17:29:48.251Z,7.01
2019-03-15T17:32:21.743Z,7.01
2019-03-15T17:34:54.346Z,7.00
2019-03-15T17:37:26.437Z,7.00
2019-03-15T17:40:00.415Z,7.01
2019-03-15T17:42:33.439Z,7.01
2019-03-15T17:45:06.914Z,7.02
2019-03-15T17:47:38.319Z,7.04
2019-03-15T17:50:13.472Z,7.06
2019-03-15T17:52:45.505Z,7.08
2019-03-15T17:55:17.290Z,7.08
2019-03-15T17:57:51.241Z,7.10
2019-03-15T18:00:33.656Z,7.10
2019-03-15T18:03:19.924Z,7.12
2019-03-15T18:05:41.262Z,7.14
2019-03-15T18:08:12.844Z,7.15
2019-03-15T18:10:45.636Z,7.15
2019-03-15T18:13:17.506Z,7.18
2019-03-15T18:15:49.839Z,7.19
2019-03-15T18:18:21.479Z,7.22
2019-03-15T18:20:55.481Z,7.23
2019-03-15T18:23:28.675Z,7.28
2019-03-15T18:26:00.529Z,7.39
2019-03-15T18:28:33.745Z,7.46
2019-03-15T18:31:06.740Z,7.53
2019-03-15T18:33:39.721Z,7.59
2019-03-15T18:36:11.530Z,7.64
2019-03-15T18:38:47.347Z,7.69
2019-03-15T18:41:20.949Z,7.33
2019-03-15T18:43:54.725Z,7.83
2019-03-15T18:46:27.570Z,7.86
2019-03-15T18:49:00.947Z,7.97
2019-03-15T18:51:34.676Z,7.98
2019-03-15T18:54:17.058Z,8.03
2019-03-15T18:56:42.765Z,8.08
2019-03-15T18:59:15.834Z,8.19
2019-03-15T19:01:47.852Z,8.24
2019-03-15T19:04:23.788Z,8.48
2019-03-15T19:07:01.446Z,8.56
2019-03-15T19:09:36.809Z,8.66
2019-03-15T19:12:09.238Z,8.80
2019-03-15T19:14:43.119Z,8.84
2019-03-15T19:17:16.822Z,9.04
2019-03-15T19:19:51.189Z,9.02
2019-03-15T19:22:24.950Z,9.16
2019-03-15T19:25:02.800Z,9.18
2019-03-15T19:27:37.152Z,9.36
2019-03-15T19:30:11.800Z,9.48
2019-03-15T19:32:46.551Z,9.41
2019-03-15T19:35:19.084Z,9.45
2019-03-15T19:37:53.757Z,9.42
2019-03-15T19:40:30.063Z,9.55
2019-03-15T19:43:06.573Z,9.59
2019-03-15T19:45:42.932Z,9.65
2019-03-15T19:48:17.199Z,9.69
2019-03-15T19:50:59.662Z,9.75
2019-03-15T19:53:39.017Z,9.80
2019-03-15T19:56:13.178Z,9.85
2019-03-15T19:58:48.940Z,9.82
2019-03-15T20:01:24.373Z,9.92
2019-03-15T20:03:57.610Z,9.92
2019-03-15T20:06:33.550Z,9.97
2019-03-15T20:09:09.397Z,10.03
2019-03-15T20:11:44.194Z,10.03
2019-03-15T20:14:20.038Z,10.06
2019-03-15T20:16:53.889Z,10.11
2019-03-15T20:19:29.832Z,10.19
2019-03-15T20:22:01.553Z,10.15
2019-03-15T20:24:36.480Z,10.15
2019-03-15T20:27:09.117Z,10.16
2019-03-15T20:29:43.276Z,10.09
2019-03-15T20:32:15.441Z,10.08
2019-03-15T20:34:49.343Z,10.18
2019-03-15T20:37:24.278Z,10.16
2019-03-15T20:40:00.671Z,10.13
2019-03-15T20:42:40.127Z,10.13
2019-03-15T20:45:16.338Z,10.16
2019-03-15T20:47:58.747Z,10.27
2019-03-15T20:50:46.097Z,10.30
2019-03-15T20:53:17.752Z,10.23
2019-03-15T20:55:54.921Z,9.96
2019-03-15T20:58:34.359Z,10.29
2019-03-15T21:01:09.069Z,10.30
2019-03-15T21:03:55.549Z,10.28
2019-03-15T21:06:19.100Z,10.28
2019-03-15T21:08:55.435Z,10.32
2019-03-15T21:11:31.376Z,10.41
2019-03-15T21:14:06.229Z,10.33
2019-03-15T21:16:40.018Z,10.44
2019-03-15T21:19:12.494Z,10.35
2019-03-15T21:21:46.424Z,10.33
2019-03-15T21:24:18.909Z,10.38
2019-03-15T21:26:54.179Z,10.35
2019-03-15T21:29:29.470Z,10.39
2019-03-15T21:32:05.623Z,10.50
2019-03-15T21:34:39.613Z,10.49
2019-03-15T21:37:15.810Z,10.37
2019-03-15T21:39:57.653Z,10.46
2019-03-15T21:42:30.599Z,10.38
2019-03-15T21:45:05.776Z,10.31
2019-03-15T21:47:40.430Z,10.31
2019-03-15T21:50:14.953Z,10.43
2019-03-15T21:52:54.063Z,10.45
2019-03-15T21:55:25.780Z,10.38
2019-03-15T21:57:57.913Z,10.30
2019-03-15T22:00:32.415Z,10.28
2019-03-15T22:03:09.052Z,10.32
2019-03-15T22:05:41.086Z,10.32
2019-03-15T22:08:16.392Z,10.29
2019-03-15T22:10:50.406Z,10.43
2019-03-15T22:13:25.522Z,10.34
2019-03-15T22:16:00.296Z,10.38
2019-03-15T22:18:32.724Z,10.45
2019-03-15T22:21:04.282Z,10.51
2019-03-15T22:23:40.077Z,10.54
2019-03-15T22:26:18.040Z,10.49
2019-03-15T22:29:07.509Z,10.51
2019-03-15T22:31:43.382Z,10.58
2019-03-15T22:34:21.138Z,10.43
2019-03-15T22:37:00.657Z,10.45
2019-03-15T22:39:35.423Z,10.43
2019-03-15T22:42:12.398Z,10.45
2019-03-15T22:44:47.496Z,10.52
2019-03-15T22:47:22.545Z,10.44
2019-03-15T22:49:54.987Z,10.43
2019-03-15T22:52:30.260Z,10.46
2019-03-15T22:55:10.384Z,10.40
2019-03-15T22:57:58.926Z,10.47
2019-03-15T23:00:27.513Z,10.48
2019-03-15T23:06:13.124Z,10.47
2019-03-15T23:08:46.405Z,10.48
2019-03-15T23:11:21.655Z,10.47
2019-03-15T23:14:02.640Z,10.58
2019-03-15T23:16:40.183Z,10.53
2019-03-15T23:19:16.064Z,10.52
2019-03-15T23:21:54.299Z,10.46
2019-03-15T23:24:29.224Z,10.50
2019-03-15T23:27:06.541Z,10.42
2019-03-15T23:29:39.740Z,10.46
2019-03-15T23:32:13.205Z,10.74
2019-03-15T23:34:46.216Z,10.68
2019-03-15T23:37:23.050Z,10.75
2019-03-15T23:39:55.045Z,10.74
2019-03-15T23:42:28.042Z,11.01
2019-03-15T23:45:03.711Z,11.14
2019-03-15T23:47:41.938Z,11.22
2019-03-15T23:50:16.546Z,11.20
2019-03-15T23:52:49.131Z,11.30
2019-03-15T23:55:22.076Z,11.19
2019-03-15T23:57:56.747Z,11.24
